sensor_id;sensor_type;location;lat;lon;timestamp;P1;durP1;ratioP1;P2;durP2;ratioP2
68507;SDS011;55510;49.560;19.090;2024-02-23T06:44:17;65.82;;;33.28;;
68507;SDS011;55510;49.560;19.090;2024-02-23T06:47:17;23.42;;;9.80;;
68507;SDS011;55510;49.560;19.090;2024-02-23T06:50:18;86.47;;;31.07;;
68507;SDS011;55510;49.560;19.090;2024-02-23T06:53:19;68.00;;;27.60;;
68507;SDS011;55510;49.560;19.090;2024-02-23T06:56:19;73.97;;;30.80;;
68507;SDS011;55510;49.560;19.090;2024-02-23T06:59:20;46.60;;;19.40;;
68507;SDS011;55510;49.560;19.090;2024-02-23T07:02:21;112.55;;;29.13;;
68507;SDS011;55510;49.560;19.090;2024-02-23T07:05:21;105.10;;;28.97;;
68507;SDS011;55510;49.560;19.090;2024-02-23T07:08:22;60.10;;;20.17;;
68507;SDS011;55510;49.560;19.090;2024-02-23T07:11:23;76.23;;;25.57;;
68507;SDS011;55510;49.560;19.090;2024-02-23T07:14:23;81.07;;;28.10;;
68507;SDS011;55510;49.560;19.090;2024-02-23T07:17:24;77.90;;;24.42;;
68507;SDS011;55510;49.560;19.090;2024-02-23T07:20:24;43.83;;;17.33;;
68507;SDS011;55510;49.560;19.090;2024-02-23T07:23:25;49.92;;;23.27;;
68507;SDS011;55510;49.560;19.090;2024-02-23T07:26:26;32.43;;;10.87;;
68507;SDS011;55510;49.560;19.090;2024-02-23T07:29:29;16.13;;;6.68;;
68507;SDS011;55510;49.560;19.090;2024-02-23T07:32:30;15.13;;;8.38;;
68507;SDS011;55510;49.560;19.090;2024-02-23T07:35:31;18.07;;;11.13;;
68507;SDS011;55510;49.560;19.090;2024-02-23T07:38:31;37.38;;;17.92;;
68507;SDS011;55510;49.560;19.090;2024-02-23T07:41:32;25.47;;;17.30;;
68507;SDS011;55510;49.560;19.090;2024-02-23T07:44:33;19.70;;;11.88;;
68507;SDS011;55510;49.560;19.090;2024-02-23T07:47:33;27.07;;;17.83;;
68507;SDS011;55510;49.560;19.090;2024-02-23T07:50:34;19.60;;;12.43;;
68507;SDS011;55510;49.560;19.090;2024-02-23T07:53:35;11.45;;;7.70;;
68507;SDS011;55510;49.560;19.090;2024-02-23T07:56:35;14.73;;;8.67;;
68507;SDS011;55510;49.560;19.090;2024-02-23T07:59:36;30.33;;;9.63;;
68507;SDS011;55510;49.560;19.090;2024-02-23T08:02:37;14.60;;;6.43;;
68507;SDS011;55510;49.560;19.090;2024-02-23T08:05:38;92.43;;;30.02;;
68507;SDS011;55510;49.560;19.090;2024-02-23T08:08:39;52.50;;;16.73;;
68507;SDS011;55510;49.560;19.090;2024-02-23T08:11:39;32.95;;;11.40;;
68507;SDS011;55510;49.560;19.090;2024-02-23T08:14:40;32.70;;;17.33;;
68507;SDS011;55510;49.560;19.090;2024-02-23T08:17:41;59.00;;;24.02;;
68507;SDS011;55510;49.560;19.090;2024-02-23T08:20:42;37.27;;;19.33;;
68507;SDS011;55510;49.560;19.090;2024-02-23T08:23:43;39.30;;;11.13;;
68507;SDS011;55510;49.560;19.090;2024-02-23T08:26:44;14.50;;;6.10;;
68507;SDS011;55510;49.560;19.090;2024-02-23T08:29:45;14.23;;;6.43;;
68507;SDS011;55510;49.560;19.090;2024-02-23T08:32:45;14.00;;;4.50;;
68507;SDS011;55510;49.560;19.090;2024-02-23T08:35:46;11.02;;;4.50;;
68507;SDS011;55510;49.560;19.090;2024-02-23T08:38:48;21.03;;;9.60;;
68507;SDS011;55510;49.560;19.090;2024-02-23T08:41:49;22.83;;;10.90;;
68507;SDS011;55510;49.560;19.090;2024-02-23T08:44:51;24.40;;;8.68;;
68507;SDS011;55510;49.560;19.090;2024-02-23T08:47:54;33.40;;;11.03;;
68507;SDS011;55510;49.560;19.090;2024-02-23T08:50:55;23.48;;;8.48;;
68507;SDS011;55510;49.560;19.090;2024-02-23T08:53:55;23.53;;;6.70;;
68507;SDS011;55510;49.560;19.090;2024-02-23T08:56:57;19.08;;;7.55;;
68507;SDS011;55510;49.560;19.090;2024-02-23T08:59:58;19.33;;;6.13;;
68507;SDS011;55510;49.560;19.090;2024-02-23T09:02:58;7.60;;;2.80;;
68507;SDS011;55510;49.560;19.090;2024-02-23T09:05:59;6.57;;;2.23;;
68507;SDS011;55510;49.560;19.090;2024-02-23T09:09:00;6.10;;;2.08;;
68507;SDS011;55510;49.560;19.090;2024-02-23T09:12:01;5.63;;;1.95;;
68507;SDS011;55510;49.560;19.090;2024-02-23T09:15:02;5.57;;;2.87;;
68507;SDS011;55510;49.560;19.090;2024-02-23T09:18:03;6.75;;;2.60;;
68507;SDS011;55510;49.560;19.090;2024-02-23T09:21:04;7.68;;;2.60;;
68507;SDS011;55510;49.560;19.090;2024-02-23T09:24:05;6.83;;;2.00;;
68507;SDS011;55510;49.560;19.090;2024-02-23T09:27:06;8.93;;;2.75;;
68507;SDS011;55510;49.560;19.090;2024-02-23T09:30:07;3.27;;;0.60;;
68507;SDS011;55510;49.560;19.090;2024-02-23T09:33:08;4.23;;;0.93;;
68507;SDS011;55510;49.560;19.090;2024-02-23T09:36:09;7.68;;;2.35;;
68507;SDS011;55510;49.560;19.090;2024-02-23T09:39:10;6.23;;;3.03;;
68507;SDS011;55510;49.560;19.090;2024-02-23T09:42:10;25.58;;;7.25;;
68507;SDS011;55510;49.560;19.090;2024-02-23T09:45:11;38.00;;;10.23;;
68507;SDS011;55510;49.560;19.090;2024-02-23T09:48:13;25.00;;;7.10;;
68507;SDS011;55510;49.560;19.090;2024-02-23T09:51:18;29.80;;;9.02;;
68507;SDS011;55510;49.560;19.090;2024-02-23T09:54:21;13.63;;;3.75;;
68507;SDS011;55510;49.560;19.090;2024-02-23T09:57:21;9.37;;;3.37;;
68507;SDS011;55510;49.560;19.090;2024-02-23T10:00:23;21.02;;;4.78;;
68507;SDS011;55510;49.560;19.090;2024-02-23T10:03:27;20.65;;;6.05;;
68507;SDS011;55510;49.560;19.090;2024-02-23T10:06:30;9.57;;;4.00;;
68507;SDS011;55510;49.560;19.090;2024-02-23T10:09:31;14.50;;;4.73;;
68507;SDS011;55510;49.560;19.090;2024-02-23T10:12:33;13.73;;;4.25;;
68507;SDS011;55510;49.560;19.090;2024-02-23T10:15:33;10.00;;;2.63;;
68507;SDS011;55510;49.560;19.090;2024-02-23T10:18:34;9.40;;;3.15;;
68507;SDS011;55510;49.560;19.090;2024-02-23T10:21:38;5.55;;;1.40;;
68507;SDS011;55510;49.560;19.090;2024-02-23T10:24:39;4.43;;;1.30;;
68507;SDS011;55510;49.560;19.090;2024-02-23T10:27:40;3.80;;;1.42;;
68507;SDS011;55510;49.560;19.090;2024-02-23T10:30:42;6.57;;;2.17;;
68507;SDS011;55510;49.560;19.090;2024-02-23T10:33:44;5.22;;;1.92;;
68507;SDS011;55510;49.560;19.090;2024-02-23T10:36:45;6.07;;;2.23;;
68507;SDS011;55510;49.560;19.090;2024-02-23T10:39:47;3.53;;;0.88;;
68507;SDS011;55510;49.560;19.090;2024-02-23T10:42:52;4.28;;;1.50;;
68507;SDS011;55510;49.560;19.090;2024-02-23T10:45:57;5.80;;;2.20;;
68507;SDS011;55510;49.560;19.090;2024-02-23T10:48:59;4.07;;;1.00;;
68507;SDS011;55510;49.560;19.090;2024-02-23T10:52:01;18.77;;;4.60;;
68507;SDS011;55510;49.560;19.090;2024-02-23T10:55:04;5.43;;;1.83;;
68507;SDS011;55510;49.560;19.090;2024-02-23T10:58:09;4.70;;;1.17;;
68507;SDS011;55510;49.560;19.090;2024-02-23T11:01:12;4.53;;;1.50;;
68507;SDS011;55510;49.560;19.090;2024-02-23T11:04:14;7.63;;;2.83;;
68507;SDS011;55510;49.560;19.090;2024-02-23T11:07:20;6.30;;;1.20;;
68507;SDS011;55510;49.560;19.090;2024-02-23T11:10:22;4.72;;;0.93;;
68507;SDS011;55510;49.560;19.090;2024-02-23T11:13:34;7.47;;;2.20;;
68507;SDS011;55510;49.560;19.090;2024-02-23T11:16:38;9.60;;;3.22;;
68507;SDS011;55510;49.560;19.090;2024-02-23T11:19:40;7.53;;;2.58;;
68507;SDS011;55510;49.560;19.090;2024-02-23T11:22:41;7.33;;;2.20;;
68507;SDS011;55510;49.560;19.090;2024-02-23T11:25:42;6.07;;;1.75;;
68507;SDS011;55510;49.560;19.090;2024-02-23T11:31:45;13.20;;;5.00;;
68507;SDS011;55510;49.560;19.090;2024-02-23T11:34:56;10.15;;;5.30;;
68507;SDS011;55510;49.560;19.090;2024-02-23T11:37:57;8.53;;;4.27;;
68507;SDS011;55510;49.560;19.090;2024-02-23T11:41:00;30.80;;;10.60;;
68507;SDS011;55510;49.560;19.090;2024-02-23T11:44:03;24.20;;;8.55;;
68507;SDS011;55510;49.560;19.090;2024-02-23T11:47:03;19.45;;;8.40;;
68507;SDS011;55510;49.560;19.090;2024-02-23T11:50:08;20.57;;;8.00;;
68507;SDS011;55510;49.560;19.090;2024-02-23T11:53:09;19.27;;;7.13;;
68507;SDS011;55510;49.560;19.090;2024-02-23T11:56:10;17.70;;;6.20;;
68507;SDS011;55510;49.560;19.090;2024-02-23T11:59:10;22.60;;;8.00;;
68507;SDS011;55510;49.560;19.090;2024-02-23T12:02:12;21.07;;;6.87;;
68507;SDS011;55510;49.560;19.090;2024-02-23T12:05:13;18.70;;;6.30;;
68507;SDS011;55510;49.560;19.090;2024-02-23T12:08:16;15.40;;;6.07;;
68507;SDS011;55510;49.560;19.090;2024-02-23T12:11:17;7.93;;;3.80;;
68507;SDS011;55510;49.560;19.090;2024-02-23T12:14:18;7.22;;;3.33;;
68507;SDS011;55510;49.560;19.090;2024-02-23T12:17:19;11.20;;;4.43;;
68507;SDS011;55510;49.560;19.090;2024-02-23T12:20:19;8.85;;;3.80;;
68507;SDS011;55510;49.560;19.090;2024-02-23T12:23:21;10.57;;;4.17;;
68507;SDS011;55510;49.560;19.090;2024-02-23T12:26:22;13.85;;;5.78;;
68507;SDS011;55510;49.560;19.090;2024-02-23T12:29:22;25.17;;;7.82;;
68507;SDS011;55510;49.560;19.090;2024-02-23T12:32:24;20.50;;;8.57;;
68507;SDS011;55510;49.560;19.090;2024-02-23T12:35:24;20.05;;;9.30;;
68507;SDS011;55510;49.560;19.090;2024-02-23T12:38:25;21.40;;;9.13;;
68507;SDS011;55510;49.560;19.090;2024-02-23T12:41:26;20.52;;;8.25;;
68507;SDS011;55510;49.560;19.090;2024-02-23T12:44:26;13.90;;;6.23;;
68507;SDS011;55510;49.560;19.090;2024-02-23T12:47:27;13.47;;;5.17;;
68507;SDS011;55510;49.560;19.090;2024-02-23T12:50:29;11.50;;;5.35;;
68507;SDS011;55510;49.560;19.090;2024-02-23T12:53:38;12.18;;;5.18;;
68507;SDS011;55510;49.560;19.090;2024-02-23T12:56:40;9.50;;;4.10;;
68507;SDS011;55510;49.560;19.090;2024-02-23T12:59:40;11.27;;;4.40;;
68507;SDS011;55510;49.560;19.090;2024-02-23T13:02:41;10.32;;;5.15;;
68507;SDS011;55510;49.560;19.090;2024-02-23T13:05:42;14.10;;;5.47;;
68507;SDS011;55510;49.560;19.090;2024-02-23T13:08:43;13.55;;;6.03;;
68507;SDS011;55510;49.560;19.090;2024-02-23T13:11:43;22.27;;;6.70;;
68507;SDS011;55510;49.560;19.090;2024-02-23T13:14:46;12.43;;;4.50;;
68507;SDS011;55510;49.560;19.090;2024-02-23T13:17:46;9.93;;;4.00;;
68507;SDS011;55510;49.560;19.090;2024-02-23T13:20:47;7.45;;;2.65;;
68507;SDS011;55510;49.560;19.090;2024-02-23T13:23:48;12.07;;;4.97;;
68507;SDS011;55510;49.560;19.090;2024-02-23T13:26:49;28.33;;;9.50;;
68507;SDS011;55510;49.560;19.090;2024-02-23T13:29:49;17.10;;;6.93;;
68507;SDS011;55510;49.560;19.090;2024-02-23T13:32:50;20.77;;;6.68;;
68507;SDS011;55510;49.560;19.090;2024-02-23T13:35:52;19.83;;;5.47;;
68507;SDS011;55510;49.560;19.090;2024-02-23T13:38:53;21.50;;;7.03;;
68507;SDS011;55510;49.560;19.090;2024-02-23T13:41:57;22.10;;;6.77;;
68507;SDS011;55510;49.560;19.090;2024-02-23T13:44:58;11.18;;;4.70;;
68507;SDS011;55510;49.560;19.090;2024-02-23T13:48:01;16.00;;;5.40;;
68507;SDS011;55510;49.560;19.090;2024-02-23T13:51:05;15.23;;;7.85;;
68507;SDS011;55510;49.560;19.090;2024-02-23T13:54:06;13.77;;;5.47;;
68507;SDS011;55510;49.560;19.090;2024-02-23T13:57:07;12.75;;;4.85;;
68507;SDS011;55510;49.560;19.090;2024-02-23T14:00:07;15.17;;;5.83;;
68507;SDS011;55510;49.560;19.090;2024-02-23T14:03:15;16.10;;;5.78;;
68507;SDS011;55510;49.560;19.090;2024-02-23T14:06:18;13.55;;;4.97;;
68507;SDS011;55510;49.560;19.090;2024-02-23T14:09:18;14.73;;;6.27;;
68507;SDS011;55510;49.560;19.090;2024-02-23T14:12:19;11.13;;;5.57;;
68507;SDS011;55510;49.560;19.090;2024-02-23T14:15:20;11.80;;;5.63;;
68507;SDS011;55510;49.560;19.090;2024-02-23T14:18:20;6.03;;;2.03;;
68507;SDS011;55510;49.560;19.090;2024-02-23T14:21:21;6.70;;;2.55;;
68507;SDS011;55510;49.560;19.090;2024-02-23T14:24:25;7.33;;;2.90;;
68507;SDS011;55510;49.560;19.090;2024-02-23T14:27:26;5.40;;;2.10;;
68507;SDS011;55510;49.560;19.090;2024-02-23T14:30:28;5.15;;;2.58;;
68507;SDS011;55510;49.560;19.090;2024-02-23T14:33:29;29.33;;;11.38;;
68507;SDS011;55510;49.560;19.090;2024-02-23T14:36:29;58.70;;;26.10;;
68507;SDS011;55510;49.560;19.090;2024-02-23T14:39:34;12.97;;;6.50;;
68507;SDS011;55510;49.560;19.090;2024-02-23T14:42:35;16.70;;;9.67;;
68507;SDS011;55510;49.560;19.090;2024-02-23T14:45:36;26.60;;;14.27;;
68507;SDS011;55510;49.560;19.090;2024-02-23T14:48:37;79.00;;;43.60;;
68507;SDS011;55510;49.560;19.090;2024-02-23T14:51:37;37.13;;;20.50;;
68507;SDS011;55510;49.560;19.090;2024-02-23T14:54:38;30.03;;;17.83;;
68507;SDS011;55510;49.560;19.090;2024-02-23T14:57:39;23.58;;;12.75;;
68507;SDS011;55510;49.560;19.090;2024-02-23T15:00:39;24.87;;;12.37;;
68507;SDS011;55510;49.560;19.090;2024-02-23T15:03:40;26.83;;;15.73;;
68507;SDS011;55510;49.560;19.090;2024-02-23T15:06:41;34.60;;;15.82;;
68507;SDS011;55510;49.560;19.090;2024-02-23T15:09:42;23.63;;;12.27;;
68507;SDS011;55510;49.560;19.090;2024-02-23T15:12:42;38.45;;;29.02;;
68507;SDS011;55510;49.560;19.090;2024-02-23T15:15:43;19.87;;;10.50;;
68507;SDS011;55510;49.560;19.090;2024-02-23T15:18:43;17.88;;;8.95;;
68507;SDS011;55510;49.560;19.090;2024-02-23T15:21:44;26.10;;;15.00;;
68507;SDS011;55510;49.560;19.090;2024-02-23T15:24:45;19.63;;;10.15;;
68507;SDS011;55510;49.560;19.090;2024-02-23T15:27:49;27.57;;;13.03;;
68507;SDS011;55510;49.560;19.090;2024-02-23T15:30:52;20.10;;;11.70;;
68507;SDS011;55510;49.560;19.090;2024-02-23T15:33:53;26.25;;;16.25;;
68507;SDS011;55510;49.560;19.090;2024-02-23T15:36:56;27.25;;;13.85;;
68507;SDS011;55510;49.560;19.090;2024-02-23T15:39:57;29.53;;;13.40;;
68507;SDS011;55510;49.560;19.090;2024-02-23T15:42:57;30.75;;;14.73;;
68507;SDS011;55510;49.560;19.090;2024-02-23T15:45:58;29.47;;;11.83;;
68507;SDS011;55510;49.560;19.090;2024-02-23T15:48:59;25.77;;;12.37;;
68507;SDS011;55510;49.560;19.090;2024-02-23T15:52:00;24.98;;;9.80;;
68507;SDS011;55510;49.560;19.090;2024-02-23T15:55:00;26.43;;;10.07;;
68507;SDS011;55510;49.560;19.090;2024-02-23T15:58:01;33.75;;;11.77;;
68507;SDS011;55510;49.560;19.090;2024-02-23T16:01:03;25.95;;;10.35;;
68507;SDS011;55510;49.560;19.090;2024-02-23T16:04:04;35.60;;;14.83;;
68507;SDS011;55510;49.560;19.090;2024-02-23T16:07:06;31.88;;;13.27;;
68507;SDS011;55510;49.560;19.090;2024-02-23T16:10:07;18.92;;;9.98;;
68507;SDS011;55510;49.560;19.090;2024-02-23T16:13:09;22.27;;;10.85;;
68507;SDS011;55510;49.560;19.090;2024-02-23T16:16:10;14.57;;;8.87;;
68507;SDS011;55510;49.560;19.090;2024-02-23T16:19:11;18.55;;;9.50;;
68507;SDS011;55510;49.560;19.090;2024-02-23T16:22:12;19.27;;;5.95;;
68507;SDS011;55510;49.560;19.090;2024-02-23T16:25:13;23.53;;;10.90;;
68507;SDS011;55510;49.560;19.090;2024-02-23T16:28:14;14.55;;;6.45;;
68507;SDS011;55510;49.560;19.090;2024-02-23T16:31:14;18.47;;;8.03;;
68507;SDS011;55510;49.560;19.090;2024-02-23T16:34:15;27.45;;;12.52;;
68507;SDS011;55510;49.560;19.090;2024-02-23T16:37:16;28.70;;;13.70;;
68507;SDS011;55510;49.560;19.090;2024-02-23T16:40:23;23.70;;;10.23;;
68507;SDS011;55510;49.560;19.090;2024-02-23T16:43:28;25.90;;;15.13;;
68507;SDS011;55510;49.560;19.090;2024-02-23T16:46:29;21.40;;;9.73;;
68507;SDS011;55510;49.560;19.090;2024-02-23T16:49:29;21.35;;;8.20;;
68507;SDS011;55510;49.560;19.090;2024-02-23T16:52:30;23.45;;;10.90;;
68507;SDS011;55510;49.560;19.090;2024-02-23T16:55:31;22.07;;;8.03;;
68507;SDS011;55510;49.560;19.090;2024-02-23T16:58:32;23.90;;;10.70;;
68507;SDS011;55510;49.560;19.090;2024-02-23T17:01:35;18.10;;;8.83;;
68507;SDS011;55510;49.560;19.090;2024-02-23T17:04:36;12.05;;;5.55;;
68507;SDS011;55510;49.560;19.090;2024-02-23T17:07:37;18.03;;;10.17;;
68507;SDS011;55510;49.560;19.090;2024-02-23T17:10:38;18.92;;;12.73;;
68507;SDS011;55510;49.560;19.090;2024-02-23T17:13:38;16.13;;;8.00;;
68507;SDS011;55510;49.560;19.090;2024-02-23T17:16:39;17.10;;;5.95;;
68507;SDS011;55510;49.560;19.090;2024-02-23T17:19:39;8.20;;;3.23;;
68507;SDS011;55510;49.560;19.090;2024-02-23T17:22:42;15.35;;;7.18;;
68507;SDS011;55510;49.560;19.090;2024-02-23T17:25:43;26.67;;;11.37;;
68507;SDS011;55510;49.560;19.090;2024-02-23T17:28:45;23.20;;;9.07;;
68507;SDS011;55510;49.560;19.090;2024-02-23T17:31:46;27.35;;;11.77;;
68507;SDS011;55510;49.560;19.090;2024-02-23T17:34:46;17.83;;;8.00;;
68507;SDS011;55510;49.560;19.090;2024-02-23T17:37:47;20.02;;;9.43;;
68507;SDS011;55510;49.560;19.090;2024-02-23T17:40:48;10.20;;;4.47;;
68507;SDS011;55510;49.560;19.090;2024-02-23T17:43:51;7.82;;;3.38;;
68507;SDS011;55510;49.560;19.090;2024-02-23T17:46:51;11.25;;;3.90;;
68507;SDS011;55510;49.560;19.090;2024-02-23T17:49:52;9.43;;;3.50;;
68507;SDS011;55510;49.560;19.090;2024-02-23T17:52:53;9.38;;;2.83;;
68507;SDS011;55510;49.560;19.090;2024-02-23T17:55:53;12.37;;;3.13;;
68507;SDS011;55510;49.560;19.090;2024-02-23T17:58:57;10.30;;;2.67;;
68507;SDS011;55510;49.560;19.090;2024-02-23T18:01:58;9.70;;;2.27;;
68507;SDS011;55510;49.560;19.090;2024-02-23T18:04:59;11.60;;;3.92;;
68507;SDS011;55510;49.560;19.090;2024-02-23T18:07:59;9.07;;;2.13;;
68507;SDS011;55510;49.560;19.090;2024-02-23T18:11:00;12.07;;;3.00;;
68507;SDS011;55510;49.560;19.090;2024-02-23T18:14:00;8.13;;;2.83;;
68507;SDS011;55510;49.560;19.090;2024-02-23T18:17:02;15.30;;;5.20;;
68507;SDS011;55510;49.560;19.090;2024-02-23T18:20:04;9.17;;;5.20;;
68507;SDS011;55510;49.560;19.090;2024-02-23T18:23:05;12.10;;;5.97;;
68507;SDS011;55510;49.560;19.090;2024-02-23T18:26:06;11.67;;;4.83;;
68507;SDS011;55510;49.560;19.090;2024-02-23T18:29:07;8.77;;;2.80;;
68507;SDS011;55510;49.560;19.090;2024-02-23T18:32:08;9.13;;;3.53;;
68507;SDS011;55510;49.560;19.090;2024-02-23T18:35:12;6.20;;;1.98;;
68507;SDS011;55510;49.560;19.090;2024-02-23T18:38:12;11.82;;;2.83;;
68507;SDS011;55510;49.560;19.090;2024-02-23T18:41:13;8.20;;;2.13;;
68507;SDS011;55510;49.560;19.090;2024-02-23T18:44:14;10.93;;;2.63;;
68507;SDS011;55510;49.560;19.090;2024-02-23T18:47:15;11.10;;;3.50;;
68507;SDS011;55510;49.560;19.090;2024-02-23T18:50:16;7.93;;;2.37;;
68507;SDS011;55510;49.560;19.090;2024-02-23T18:53:16;8.53;;;2.40;;
68507;SDS011;55510;49.560;19.090;2024-02-23T18:56:17;7.63;;;2.10;;
68507;SDS011;55510;49.560;19.090;2024-02-23T18:59:18;5.80;;;1.63;;
68507;SDS011;55510;49.560;19.090;2024-02-23T19:02:19;8.90;;;2.78;;
68507;SDS011;55510;49.560;19.090;2024-02-23T19:05:20;6.70;;;1.60;;
68507;SDS011;55510;49.560;19.090;2024-02-23T19:08:21;7.00;;;2.10;;
68507;SDS011;55510;49.560;19.090;2024-02-23T19:11:21;8.32;;;2.63;;
68507;SDS011;55510;49.560;19.090;2024-02-23T19:14:22;3.70;;;0.90;;
68507;SDS011;55510;49.560;19.090;2024-02-23T19:17:23;6.00;;;1.45;;
68507;SDS011;55510;49.560;19.090;2024-02-23T19:20:23;6.17;;;1.77;;
68507;SDS011;55510;49.560;19.090;2024-02-23T19:23:24;5.72;;;1.45;;
68507;SDS011;55510;49.560;19.090;2024-02-23T19:26:25;6.83;;;2.90;;
68507;SDS011;55510;49.560;19.090;2024-02-23T19:29:27;3.72;;;0.90;;
68507;SDS011;55510;49.560;19.090;2024-02-23T19:32:27;4.17;;;1.50;;
68507;SDS011;55510;49.560;19.090;2024-02-23T19:35:28;7.43;;;3.47;;
68507;SDS011;55510;49.560;19.090;2024-02-23T19:38:29;7.00;;;3.00;;
68507;SDS011;55510;49.560;19.090;2024-02-23T19:41:30;5.90;;;1.20;;
68507;SDS011;55510;49.560;19.090;2024-02-23T19:44:31;3.90;;;0.90;;
68507;SDS011;55510;49.560;19.090;2024-02-23T19:47:32;4.57;;;1.43;;
68507;SDS011;55510;49.560;19.090;2024-02-23T19:50:33;5.90;;;1.48;;
68507;SDS011;55510;49.560;19.090;2024-02-23T19:53:34;7.37;;;2.70;;
68507;SDS011;55510;49.560;19.090;2024-02-23T19:56:34;4.63;;;1.40;;
68507;SDS011;55510;49.560;19.090;2024-02-23T19:59:35;3.90;;;0.83;;
68507;SDS011;55510;49.560;19.090;2024-02-23T20:02:37;5.80;;;1.23;;
68507;SDS011;55510;49.560;19.090;2024-02-23T20:05:38;6.70;;;2.45;;
68507;SDS011;55510;49.560;19.090;2024-02-23T20:08:39;6.70;;;2.87;;
68507;SDS011;55510;49.560;19.090;2024-02-23T20:11:39;5.65;;;1.92;;
68507;SDS011;55510;49.560;19.090;2024-02-23T20:14:40;8.80;;;3.07;;
68507;SDS011;55510;49.560;19.090;2024-02-23T20:17:42;5.95;;;1.33;;
68507;SDS011;55510;49.560;19.090;2024-02-23T20:20:46;3.80;;;1.13;;
68507;SDS011;55510;49.560;19.090;2024-02-23T20:23:47;3.83;;;0.90;;
68507;SDS011;55510;49.560;19.090;2024-02-23T20:26:47;5.13;;;1.25;;
68507;SDS011;55510;49.560;19.090;2024-02-23T20:29:48;4.27;;;0.50;;
68507;SDS011;55510;49.560;19.090;2024-02-23T20:32:49;2.10;;;0.40;;
68507;SDS011;55510;49.560;19.090;2024-02-23T20:35:50;3.73;;;1.13;;
68507;SDS011;55510;49.560;19.090;2024-02-23T20:38:50;2.50;;;0.60;;
68507;SDS011;55510;49.560;19.090;2024-02-23T20:41:52;3.28;;;0.70;;
68507;SDS011;55510;49.560;19.090;2024-02-23T20:44:52;2.60;;;0.40;;
68507;SDS011;55510;49.560;19.090;2024-02-23T20:47:53;6.18;;;2.30;;
68507;SDS011;55510;49.560;19.090;2024-02-23T20:50:54;3.10;;;0.80;;
68507;SDS011;55510;49.560;19.090;2024-02-23T20:53:55;5.22;;;1.60;;
68507;SDS011;55510;49.560;19.090;2024-02-23T20:56:55;12.87;;;3.27;;
68507;SDS011;55510;49.560;19.090;2024-02-23T20:59:56;7.67;;;2.20;;
68507;SDS011;55510;49.560;19.090;2024-02-23T21:02:57;9.45;;;2.63;;
68507;SDS011;55510;49.560;19.090;2024-02-23T21:05:59;10.07;;;2.30;;
68507;SDS011;55510;49.560;19.090;2024-02-23T21:08:59;12.90;;;3.27;;
68507;SDS011;55510;49.560;19.090;2024-02-23T21:12:00;10.57;;;2.88;;
68507;SDS011;55510;49.560;19.090;2024-02-23T21:15:01;11.80;;;3.70;;
68507;SDS011;55510;49.560;19.090;2024-02-23T21:18:02;10.95;;;3.72;;
68507;SDS011;55510;49.560;19.090;2024-02-23T21:21:03;11.13;;;4.00;;
68507;SDS011;55510;49.560;19.090;2024-02-23T21:24:04;6.17;;;2.60;;
68507;SDS011;55510;49.560;19.090;2024-02-23T21:27:05;6.00;;;2.85;;
68507;SDS011;55510;49.560;19.090;2024-02-23T21:30:06;10.23;;;3.20;;
68507;SDS011;55510;49.560;19.090;2024-02-23T21:33:08;7.47;;;2.50;;
68507;SDS011;55510;49.560;19.090;2024-02-23T21:36:09;6.75;;;2.50;;
68507;SDS011;55510;49.560;19.090;2024-02-23T21:39:09;6.87;;;2.50;;
68507;SDS011;55510;49.560;19.090;2024-02-23T21:42:11;20.83;;;8.10;;
68507;SDS011;55510;49.560;19.090;2024-02-23T21:45:11;25.95;;;9.57;;
68507;SDS011;55510;49.560;19.090;2024-02-23T21:48:12;15.37;;;6.53;;
68507;SDS011;55510;49.560;19.090;2024-02-23T21:51:13;12.13;;;4.10;;
68507;SDS011;55510;49.560;19.090;2024-02-23T21:54:14;8.77;;;3.90;;
68507;SDS011;55510;49.560;19.090;2024-02-23T21:57:14;9.03;;;3.87;;
68507;SDS011;55510;49.560;19.090;2024-02-23T22:00:15;7.93;;;3.40;;
68507;SDS011;55510;49.560;19.090;2024-02-23T22:03:17;8.18;;;3.50;;
68507;SDS011;55510;49.560;19.090;2024-02-23T22:06:19;5.82;;;2.70;;
68507;SDS011;55510;49.560;19.090;2024-02-23T22:09:21;12.37;;;5.97;;
68507;SDS011;55510;49.560;19.090;2024-02-23T22:12:25;14.47;;;6.40;;
68507;SDS011;55510;49.560;19.090;2024-02-23T22:15:26;12.73;;;5.30;;
68507;SDS011;55510;49.560;19.090;2024-02-23T22:18:27;16.15;;;6.65;;
68507;SDS011;55510;49.560;19.090;2024-02-23T22:21:32;11.63;;;5.73;;
68507;SDS011;55510;49.560;19.090;2024-02-23T22:24:32;9.20;;;4.68;;
68507;SDS011;55510;49.560;19.090;2024-02-23T22:27:33;7.13;;;3.80;;
68507;SDS011;55510;49.560;19.090;2024-02-23T22:30:35;5.93;;;2.95;;
68507;SDS011;55510;49.560;19.090;2024-02-23T22:33:35;6.23;;;2.97;;
68507;SDS011;55510;49.560;19.090;2024-02-23T22:36:36;5.97;;;2.80;;
68507;SDS011;55510;49.560;19.090;2024-02-23T22:39:36;6.87;;;2.67;;
68507;SDS011;55510;49.560;19.090;2024-02-23T22:42:37;5.30;;;2.88;;
68507;SDS011;55510;49.560;19.090;2024-02-23T22:45:38;6.23;;;3.00;;
68507;SDS011;55510;49.560;19.090;2024-02-23T22:48:39;5.70;;;2.90;;
68507;SDS011;55510;49.560;19.090;2024-02-23T22:51:40;8.80;;;4.37;;
68507;SDS011;55510;49.560;19.090;2024-02-23T22:54:42;9.38;;;4.60;;
68507;SDS011;55510;49.560;19.090;2024-02-23T22:57:43;6.50;;;3.53;;
68507;SDS011;55510;49.560;19.090;2024-02-23T23:00:44;9.55;;;4.43;;
68507;SDS011;55510;49.560;19.090;2024-02-23T23:03:45;9.65;;;4.53;;
68507;SDS011;55510;49.560;19.090;2024-02-23T23:06:46;11.27;;;5.63;;
68507;SDS011;55510;49.560;19.090;2024-02-23T23:09:47;9.48;;;4.32;;
68507;SDS011;55510;49.560;19.090;2024-02-23T23:12:47;7.17;;;3.37;;
68507;SDS011;55510;49.560;19.090;2024-02-23T23:15:48;9.02;;;4.30;;
68507;SDS011;55510;49.560;19.090;2024-02-23T23:18:49;9.37;;;4.37;;
68507;SDS011;55510;49.560;19.090;2024-02-23T23:21:50;9.30;;;3.70;;
68507;SDS011;55510;49.560;19.090;2024-02-23T23:24:50;9.23;;;3.93;;
68507;SDS011;55510;49.560;19.090;2024-02-23T23:27:51;7.30;;;3.58;;
68507;SDS011;55510;49.560;19.090;2024-02-23T23:30:52;6.57;;;3.57;;
68507;SDS011;55510;49.560;19.090;2024-02-23T23:33:54;7.80;;;3.83;;
68507;SDS011;55510;49.560;19.090;2024-02-23T23:36:55;10.40;;;4.88;;
68507;SDS011;55510;49.560;19.090;2024-02-23T23:39:56;10.82;;;4.40;;
68507;SDS011;55510;49.560;19.090;2024-02-23T23:42:57;9.60;;;4.13;;
68507;SDS011;55510;49.560;19.090;2024-02-23T23:45:57;7.63;;;3.83;;
68507;SDS011;55510;49.560;19.090;2024-02-23T23:48:58;9.23;;;3.90;;
68507;SDS011;55510;49.560;19.090;2024-02-23T23:51:58;9.57;;;4.87;;
68507;SDS011;55510;49.560;19.090;2024-02-23T23:54:59;13.07;;;4.80;;
68507;SDS011;55510;49.560;19.090;2024-02-23T23:58:00;9.83;;;4.70;;
